sensor_id;sensor_type;location;lat;lon;timestamp;P1;durP1;ratioP1;P2;durP2;ratioP2
78027;SDS011;67235;45.638;11.714;2023-10-31T00:00:27;793.35;;;430.02;;
78027;SDS011;67235;45.638;11.714;2023-10-31T00:02:53;793.10;;;430.83;;
78027;SDS011;67235;45.638;11.714;2023-10-31T00:05:19;792.47;;;430.40;;
78027;SDS011;67235;45.638;11.714;2023-10-31T00:07:45;792.08;;;431.90;;
78027;SDS011;67235;45.638;11.714;2023-10-31T00:10:10;797.10;;;436.67;;
78027;SDS011;67235;45.638;11.714;2023-10-31T00:12:36;795.72;;;436.08;;
78027;SDS011;67235;45.638;11.714;2023-10-31T00:15:04;794.20;;;436.52;;
78027;SDS011;67235;45.638;11.714;2023-10-31T00:17:30;797.47;;;436.98;;
78027;SDS011;67235;45.638;11.714;2023-10-31T00:19:56;788.78;;;432.33;;
78027;SDS011;67235;45.638;11.714;2023-10-31T00:22:21;792.63;;;435.00;;
78027;SDS011;67235;45.638;11.714;2023-10-31T00:24:47;789.95;;;432.98;;
78027;SDS011;67235;45.638;11.714;2023-10-31T00:27:13;791.10;;;436.33;;
78027;SDS011;67235;45.638;11.714;2023-10-31T00:29:40;793.80;;;436.50;;
78027;SDS011;67235;45.638;11.714;2023-10-31T00:32:06;791.05;;;435.70;;
78027;SDS011;67235;45.638;11.714;2023-10-31T00:34:31;787.80;;;434.73;;
78027;SDS011;67235;45.638;11.714;2023-10-31T00:36:57;787.40;;;433.83;;
78027;SDS011;67235;45.638;11.714;2023-10-31T00:39:23;789.03;;;434.03;;
78027;SDS011;67235;45.638;11.714;2023-10-31T00:41:49;784.47;;;431.63;;
78027;SDS011;67235;45.638;11.714;2023-10-31T00:44:15;791.33;;;432.08;;
78027;SDS011;67235;45.638;11.714;2023-10-31T00:46:41;791.40;;;434.38;;
78027;SDS011;67235;45.638;11.714;2023-10-31T00:49:06;786.80;;;436.33;;
78027;SDS011;67235;45.638;11.714;2023-10-31T00:51:32;792.20;;;437.40;;
78027;SDS011;67235;45.638;11.714;2023-10-31T00:53:58;791.55;;;434.08;;
78027;SDS011;67235;45.638;11.714;2023-10-31T00:56:24;784.00;;;437.27;;
78027;SDS011;67235;45.638;11.714;2023-10-31T00:58:50;787.17;;;439.47;;
78027;SDS011;67235;45.638;11.714;2023-10-31T01:01:16;779.63;;;433.02;;
78027;SDS011;67235;45.638;11.714;2023-10-31T01:03:42;780.42;;;437.25;;
78027;SDS011;67235;45.638;11.714;2023-10-31T01:06:08;780.47;;;436.83;;
78027;SDS011;67235;45.638;11.714;2023-10-31T01:08:34;781.45;;;436.77;;
78027;SDS011;67235;45.638;11.714;2023-10-31T01:11:00;783.13;;;439.42;;
78027;SDS011;67235;45.638;11.714;2023-10-31T01:13:25;780.90;;;439.87;;
78027;SDS011;67235;45.638;11.714;2023-10-31T01:15:51;777.92;;;437.13;;
78027;SDS011;67235;45.638;11.714;2023-10-31T01:18:17;781.05;;;442.15;;
78027;SDS011;67235;45.638;11.714;2023-10-31T01:20:43;781.22;;;440.92;;
78027;SDS011;67235;45.638;11.714;2023-10-31T01:23:09;782.08;;;441.08;;
78027;SDS011;67235;45.638;11.714;2023-10-31T01:25:35;785.35;;;445.73;;
78027;SDS011;67235;45.638;11.714;2023-10-31T01:28:01;781.73;;;441.87;;
78027;SDS011;67235;45.638;11.714;2023-10-31T01:30:27;780.97;;;440.45;;
78027;SDS011;67235;45.638;11.714;2023-10-31T01:32:52;783.13;;;444.60;;
78027;SDS011;67235;45.638;11.714;2023-10-31T01:35:18;777.78;;;439.77;;
78027;SDS011;67235;45.638;11.714;2023-10-31T01:37:44;782.35;;;444.48;;
78027;SDS011;67235;45.638;11.714;2023-10-31T01:40:13;784.63;;;448.07;;
78027;SDS011;67235;45.638;11.714;2023-10-31T01:42:39;783.22;;;443.20;;
78027;SDS011;67235;45.638;11.714;2023-10-31T01:45:05;783.42;;;445.33;;
78027;SDS011;67235;45.638;11.714;2023-10-31T01:47:32;785.47;;;447.38;;
78027;SDS011;67235;45.638;11.714;2023-10-31T01:49:58;786.78;;;445.95;;
78027;SDS011;67235;45.638;11.714;2023-10-31T01:52:25;783.75;;;445.80;;
78027;SDS011;67235;45.638;11.714;2023-10-31T01:54:51;784.53;;;446.33;;
78027;SDS011;67235;45.638;11.714;2023-10-31T01:57:18;787.27;;;448.07;;
78027;SDS011;67235;45.638;11.714;2023-10-31T01:59:46;787.95;;;449.00;;
78027;SDS011;67235;45.638;11.714;2023-10-31T02:02:12;787.20;;;446.35;;
78027;SDS011;67235;45.638;11.714;2023-10-31T02:04:38;789.67;;;448.48;;
78027;SDS011;67235;45.638;11.714;2023-10-31T02:07:04;793.00;;;452.75;;
78027;SDS011;67235;45.638;11.714;2023-10-31T02:09:30;805.73;;;455.67;;
78027;SDS011;67235;45.638;11.714;2023-10-31T02:11:57;797.45;;;454.13;;
78027;SDS011;67235;45.638;11.714;2023-10-31T02:14:23;807.42;;;454.70;;
78027;SDS011;67235;45.638;11.714;2023-10-31T02:16:50;807.08;;;455.52;;
78027;SDS011;67235;45.638;11.714;2023-10-31T02:19:18;794.40;;;453.30;;
78027;SDS011;67235;45.638;11.714;2023-10-31T02:21:45;793.13;;;454.30;;
78027;SDS011;67235;45.638;11.714;2023-10-31T02:24:11;788.28;;;449.40;;
78027;SDS011;67235;45.638;11.714;2023-10-31T02:26:37;784.97;;;448.23;;
78027;SDS011;67235;45.638;11.714;2023-10-31T02:29:03;789.72;;;452.08;;
78027;SDS011;67235;45.638;11.714;2023-10-31T02:31:30;786.45;;;450.42;;
78027;SDS011;67235;45.638;11.714;2023-10-31T02:33:56;792.53;;;450.75;;
78027;SDS011;67235;45.638;11.714;2023-10-31T02:36:22;784.97;;;449.98;;
78027;SDS011;67235;45.638;11.714;2023-10-31T02:38:48;789.23;;;454.17;;
78027;SDS011;67235;45.638;11.714;2023-10-31T02:41:14;793.83;;;452.73;;
78027;SDS011;67235;45.638;11.714;2023-10-31T02:43:40;782.42;;;447.20;;
78027;SDS011;67235;45.638;11.714;2023-10-31T02:46:07;771.00;;;441.58;;
78027;SDS011;67235;45.638;11.714;2023-10-31T02:48:33;776.67;;;449.25;;
78027;SDS011;67235;45.638;11.714;2023-10-31T02:51:04;782.50;;;453.10;;
78027;SDS011;67235;45.638;11.714;2023-10-31T02:53:32;780.35;;;452.25;;
78027;SDS011;67235;45.638;11.714;2023-10-31T02:55:58;785.42;;;452.52;;
78027;SDS011;67235;45.638;11.714;2023-10-31T02:58:24;785.92;;;454.55;;
78027;SDS011;67235;45.638;11.714;2023-10-31T03:00:50;791.47;;;453.90;;
78027;SDS011;67235;45.638;11.714;2023-10-31T03:03:16;797.63;;;455.63;;
78027;SDS011;67235;45.638;11.714;2023-10-31T03:05:41;794.17;;;454.80;;
78027;SDS011;67235;45.638;11.714;2023-10-31T03:08:07;795.13;;;458.90;;
78027;SDS011;67235;45.638;11.714;2023-10-31T03:10:35;793.33;;;456.58;;
78027;SDS011;67235;45.638;11.714;2023-10-31T03:13:03;799.10;;;455.40;;
78027;SDS011;67235;45.638;11.714;2023-10-31T03:15:29;797.03;;;458.15;;
78027;SDS011;67235;45.638;11.714;2023-10-31T03:17:55;795.73;;;457.70;;
78027;SDS011;67235;45.638;11.714;2023-10-31T03:20:20;807.97;;;459.63;;
78027;SDS011;67235;45.638;11.714;2023-10-31T03:22:46;796.42;;;458.00;;
78027;SDS011;67235;45.638;11.714;2023-10-31T03:25:12;798.13;;;459.47;;
78027;SDS011;67235;45.638;11.714;2023-10-31T03:27:38;799.30;;;457.17;;
78027;SDS011;67235;45.638;11.714;2023-10-31T03:30:04;795.90;;;459.13;;
78027;SDS011;67235;45.638;11.714;2023-10-31T03:32:30;798.45;;;461.27;;
78027;SDS011;67235;45.638;11.714;2023-10-31T03:34:56;797.60;;;457.77;;
78027;SDS011;67235;45.638;11.714;2023-10-31T03:37:22;793.70;;;456.73;;
78027;SDS011;67235;45.638;11.714;2023-10-31T03:39:48;785.40;;;452.23;;
78027;SDS011;67235;45.638;11.714;2023-10-31T03:42:14;792.47;;;453.27;;
78027;SDS011;67235;45.638;11.714;2023-10-31T03:44:40;790.97;;;455.30;;
78027;SDS011;67235;45.638;11.714;2023-10-31T03:47:05;798.60;;;455.80;;
78027;SDS011;67235;45.638;11.714;2023-10-31T03:49:31;791.92;;;455.35;;
78027;SDS011;67235;45.638;11.714;2023-10-31T03:51:57;791.37;;;455.10;;
78027;SDS011;67235;45.638;11.714;2023-10-31T03:54:23;795.33;;;454.60;;
78027;SDS011;67235;45.638;11.714;2023-10-31T03:56:49;800.33;;;456.70;;
78027;SDS011;67235;45.638;11.714;2023-10-31T03:59:15;796.70;;;456.40;;
78027;SDS011;67235;45.638;11.714;2023-10-31T04:01:42;793.67;;;453.48;;
78027;SDS011;67235;45.638;11.714;2023-10-31T04:04:08;798.17;;;458.13;;
78027;SDS011;67235;45.638;11.714;2023-10-31T04:06:33;794.60;;;456.93;;
78027;SDS011;67235;45.638;11.714;2023-10-31T04:09:04;794.17;;;455.00;;
78027;SDS011;67235;45.638;11.714;2023-10-31T04:11:31;797.42;;;458.83;;
78027;SDS011;67235;45.638;11.714;2023-10-31T04:13:56;801.08;;;460.52;;
78027;SDS011;67235;45.638;11.714;2023-10-31T04:16:22;799.00;;;462.35;;
78027;SDS011;67235;45.638;11.714;2023-10-31T04:18:48;801.20;;;461.33;;
78027;SDS011;67235;45.638;11.714;2023-10-31T04:21:14;793.93;;;460.30;;
78027;SDS011;67235;45.638;11.714;2023-10-31T04:23:40;799.63;;;457.88;;
78027;SDS011;67235;45.638;11.714;2023-10-31T04:26:06;797.28;;;461.48;;
78027;SDS011;67235;45.638;11.714;2023-10-31T04:28:31;800.60;;;460.73;;
78027;SDS011;67235;45.638;11.714;2023-10-31T04:30:57;803.88;;;461.23;;
78027;SDS011;67235;45.638;11.714;2023-10-31T04:33:23;796.80;;;458.17;;
78027;SDS011;67235;45.638;11.714;2023-10-31T04:35:49;797.28;;;456.95;;
78027;SDS011;67235;45.638;11.714;2023-10-31T04:38:15;802.00;;;461.87;;
78027;SDS011;67235;45.638;11.714;2023-10-31T04:40:40;797.10;;;458.55;;
78027;SDS011;67235;45.638;11.714;2023-10-31T04:43:07;797.15;;;457.92;;
78027;SDS011;67235;45.638;11.714;2023-10-31T04:45:33;804.00;;;461.55;;
78027;SDS011;67235;45.638;11.714;2023-10-31T04:47:59;801.58;;;457.73;;
78027;SDS011;67235;45.638;11.714;2023-10-31T04:50:25;800.00;;;458.25;;
78027;SDS011;67235;45.638;11.714;2023-10-31T04:52:51;799.67;;;458.20;;
78027;SDS011;67235;45.638;11.714;2023-10-31T04:55:16;799.85;;;456.98;;
78027;SDS011;67235;45.638;11.714;2023-10-31T04:57:42;795.87;;;454.07;;
78027;SDS011;67235;45.638;11.714;2023-10-31T05:00:08;795.63;;;456.70;;
78027;SDS011;67235;45.638;11.714;2023-10-31T05:02:35;801.90;;;457.65;;
78027;SDS011;67235;45.638;11.714;2023-10-31T05:05:02;798.87;;;457.53;;
78027;SDS011;67235;45.638;11.714;2023-10-31T05:07:28;799.95;;;456.92;;
78027;SDS011;67235;45.638;11.714;2023-10-31T05:09:54;798.05;;;452.65;;
78027;SDS011;67235;45.638;11.714;2023-10-31T05:12:20;801.20;;;457.52;;
78027;SDS011;67235;45.638;11.714;2023-10-31T05:14:45;801.67;;;455.70;;
78027;SDS011;67235;45.638;11.714;2023-10-31T05:17:11;800.67;;;453.95;;
78027;SDS011;67235;45.638;11.714;2023-10-31T05:19:37;796.45;;;453.45;;
78027;SDS011;67235;45.638;11.714;2023-10-31T05:22:03;795.03;;;452.85;;
78027;SDS011;67235;45.638;11.714;2023-10-31T05:24:29;792.65;;;450.23;;
78027;SDS011;67235;45.638;11.714;2023-10-31T05:26:57;797.58;;;454.15;;
78027;SDS011;67235;45.638;11.714;2023-10-31T05:29:23;791.70;;;449.90;;
78027;SDS011;67235;45.638;11.714;2023-10-31T05:31:49;791.55;;;449.05;;
78027;SDS011;67235;45.638;11.714;2023-10-31T05:34:15;797.00;;;455.88;;
78027;SDS011;67235;45.638;11.714;2023-10-31T05:36:41;791.93;;;452.70;;
78027;SDS011;67235;45.638;11.714;2023-10-31T05:39:07;798.78;;;454.40;;
78027;SDS011;67235;45.638;11.714;2023-10-31T05:41:34;792.30;;;452.88;;
78027;SDS011;67235;45.638;11.714;2023-10-31T05:44:00;793.10;;;453.98;;
78027;SDS011;67235;45.638;11.714;2023-10-31T05:46:26;788.43;;;451.80;;
78027;SDS011;67235;45.638;11.714;2023-10-31T05:48:53;795.85;;;454.35;;
78027;SDS011;67235;45.638;11.714;2023-10-31T05:51:19;790.00;;;447.77;;
78027;SDS011;67235;45.638;11.714;2023-10-31T05:53:45;795.30;;;451.63;;
78027;SDS011;67235;45.638;11.714;2023-10-31T05:56:16;793.55;;;452.98;;
78027;SDS011;67235;45.638;11.714;2023-10-31T05:58:42;795.22;;;449.58;;
78027;SDS011;67235;45.638;11.714;2023-10-31T06:01:12;792.42;;;449.42;;
78027;SDS011;67235;45.638;11.714;2023-10-31T06:03:42;797.60;;;452.50;;
78027;SDS011;67235;45.638;11.714;2023-10-31T06:06:10;792.60;;;450.00;;
78027;SDS011;67235;45.638;11.714;2023-10-31T06:08:41;795.38;;;451.52;;
78027;SDS011;67235;45.638;11.714;2023-10-31T06:11:07;802.92;;;453.63;;
78027;SDS011;67235;45.638;11.714;2023-10-31T06:13:39;800.90;;;455.15;;
78027;SDS011;67235;45.638;11.714;2023-10-31T06:16:10;800.42;;;454.42;;
78027;SDS011;67235;45.638;11.714;2023-10-31T06:18:37;803.40;;;458.17;;
78027;SDS011;67235;45.638;11.714;2023-10-31T06:21:05;800.58;;;454.17;;
78027;SDS011;67235;45.638;11.714;2023-10-31T06:23:31;803.78;;;456.38;;
78027;SDS011;67235;45.638;11.714;2023-10-31T06:25:57;803.08;;;454.00;;
78027;SDS011;67235;45.638;11.714;2023-10-31T06:28:23;801.30;;;456.40;;
78027;SDS011;67235;45.638;11.714;2023-10-31T06:30:49;807.72;;;456.20;;
78027;SDS011;67235;45.638;11.714;2023-10-31T06:33:15;769.17;;;431.83;;
78027;SDS011;67235;45.638;11.714;2023-10-31T06:35:41;12.80;;;5.40;;
78027;SDS011;67235;45.638;11.714;2023-10-31T06:38:07;12.63;;;5.72;;
78027;SDS011;67235;45.638;11.714;2023-10-31T06:40:33;11.30;;;5.23;;
78027;SDS011;67235;45.638;11.714;2023-10-31T06:42:59;12.13;;;5.88;;
78027;SDS011;67235;45.638;11.714;2023-10-31T06:45:26;11.63;;;5.00;;
78027;SDS011;67235;45.638;11.714;2023-10-31T06:47:52;9.52;;;4.40;;
78027;SDS011;67235;45.638;11.714;2023-10-31T06:50:18;10.48;;;4.50;;
78027;SDS011;67235;45.638;11.714;2023-10-31T06:52:44;10.75;;;4.47;;
78027;SDS011;67235;45.638;11.714;2023-10-31T06:55:09;8.93;;;3.97;;
78027;SDS011;67235;45.638;11.714;2023-10-31T06:57:35;14.68;;;5.43;;
78027;SDS011;67235;45.638;11.714;2023-10-31T07:00:01;7.38;;;3.40;;
78027;SDS011;67235;45.638;11.714;2023-10-31T07:02:28;8.93;;;4.60;;
78027;SDS011;67235;45.638;11.714;2023-10-31T07:04:54;9.85;;;4.15;;
78027;SDS011;67235;45.638;11.714;2023-10-31T07:07:20;8.23;;;4.10;;
78027;SDS011;67235;45.638;11.714;2023-10-31T07:09:46;12.13;;;3.87;;
78027;SDS011;67235;45.638;11.714;2023-10-31T07:12:11;8.70;;;3.58;;
78027;SDS011;67235;45.638;11.714;2023-10-31T07:14:37;8.18;;;3.40;;
78027;SDS011;67235;45.638;11.714;2023-10-31T07:17:03;7.97;;;3.20;;
78027;SDS011;67235;45.638;11.714;2023-10-31T07:19:29;9.55;;;3.50;;
78027;SDS011;67235;45.638;11.714;2023-10-31T07:21:55;7.40;;;3.58;;
78027;SDS011;67235;45.638;11.714;2023-10-31T07:24:21;6.28;;;3.00;;
78027;SDS011;67235;45.638;11.714;2023-10-31T07:26:47;7.10;;;2.60;;
78027;SDS011;67235;45.638;11.714;2023-10-31T07:29:13;7.10;;;2.47;;
78027;SDS011;67235;45.638;11.714;2023-10-31T07:31:39;8.15;;;2.55;;
78027;SDS011;67235;45.638;11.714;2023-10-31T07:34:05;6.18;;;2.78;;
78027;SDS011;67235;45.638;11.714;2023-10-31T07:36:31;5.22;;;2.08;;
78027;SDS011;67235;45.638;11.714;2023-10-31T07:38:59;5.47;;;2.83;;
78027;SDS011;67235;45.638;11.714;2023-10-31T07:41:26;5.38;;;2.40;;
78027;SDS011;67235;45.638;11.714;2023-10-31T07:43:51;6.22;;;3.20;;
78027;SDS011;67235;45.638;11.714;2023-10-31T07:46:18;6.07;;;2.97;;
78027;SDS011;67235;45.638;11.714;2023-10-31T07:48:44;7.20;;;2.80;;
78027;SDS011;67235;45.638;11.714;2023-10-31T07:51:10;6.82;;;2.65;;
78027;SDS011;67235;45.638;11.714;2023-10-31T07:53:36;6.55;;;2.70;;
78027;SDS011;67235;45.638;11.714;2023-10-31T07:56:02;6.72;;;2.33;;
78027;SDS011;67235;45.638;11.714;2023-10-31T07:58:29;5.80;;;2.27;;
78027;SDS011;67235;45.638;11.714;2023-10-31T08:00:55;6.20;;;1.83;;
78027;SDS011;67235;45.638;11.714;2023-10-31T08:03:22;4.70;;;2.00;;
78027;SDS011;67235;45.638;11.714;2023-10-31T08:05:48;996.10;;;383.33;;
78027;SDS011;67235;45.638;11.714;2023-10-31T08:08:14;1101.40;;;435.38;;
78027;SDS011;67235;45.638;11.714;2023-10-31T08:10:40;1086.50;;;429.93;;
78027;SDS011;67235;45.638;11.714;2023-10-31T08:13:07;1077.45;;;423.95;;
78027;SDS011;67235;45.638;11.714;2023-10-31T08:15:33;1075.03;;;423.17;;
78027;SDS011;67235;45.638;11.714;2023-10-31T08:17:59;1085.43;;;422.17;;
78027;SDS011;67235;45.638;11.714;2023-10-31T08:20:25;685.37;;;270.53;;
78027;SDS011;67235;45.638;11.714;2023-10-31T08:22:51;1079.70;;;423.17;;
78027;SDS011;67235;45.638;11.714;2023-10-31T08:25:17;1080.60;;;424.30;;
78027;SDS011;67235;45.638;11.714;2023-10-31T08:27:43;1079.20;;;424.17;;
78027;SDS011;67235;45.638;11.714;2023-10-31T08:30:10;1078.55;;;425.02;;
78027;SDS011;67235;45.638;11.714;2023-10-31T08:32:37;1072.43;;;421.50;;
78027;SDS011;67235;45.638;11.714;2023-10-31T08:35:03;1078.30;;;422.83;;
78027;SDS011;67235;45.638;11.714;2023-10-31T08:37:30;1070.22;;;421.02;;
78027;SDS011;67235;45.638;11.714;2023-10-31T08:40:06;1070.25;;;422.13;;
78027;SDS011;67235;45.638;11.714;2023-10-31T08:42:45;1066.83;;;419.30;;
78027;SDS011;67235;45.638;11.714;2023-10-31T08:45:10;1074.68;;;421.05;;
78027;SDS011;67235;45.638;11.714;2023-10-31T08:47:36;1070.50;;;418.65;;
78027;SDS011;67235;45.638;11.714;2023-10-31T08:50:02;1071.13;;;421.80;;
78027;SDS011;67235;45.638;11.714;2023-10-31T08:52:28;1072.13;;;419.83;;
78027;SDS011;67235;45.638;11.714;2023-10-31T08:54:55;1072.40;;;421.15;;
78027;SDS011;67235;45.638;11.714;2023-10-31T08:57:21;1071.55;;;422.58;;
78027;SDS011;67235;45.638;11.714;2023-10-31T08:59:47;1078.27;;;428.53;;
78027;SDS011;67235;45.638;11.714;2023-10-31T09:02:14;1079.25;;;432.52;;
78027;SDS011;67235;45.638;11.714;2023-10-31T09:04:40;1067.38;;;426.27;;
78027;SDS011;67235;45.638;11.714;2023-10-31T09:07:07;1059.30;;;422.95;;
78027;SDS011;67235;45.638;11.714;2023-10-31T09:09:45;1063.43;;;429.70;;
78027;SDS011;67235;45.638;11.714;2023-10-31T09:12:21;1063.18;;;433.60;;
78027;SDS011;67235;45.638;11.714;2023-10-31T09:21:12;1061.38;;;471.42;;
78027;SDS011;67235;45.638;11.714;2023-10-31T09:26:15;995.88;;;466.67;;
78027;SDS011;67235;45.638;11.714;2023-10-31T09:31:51;947.58;;;468.08;;
78027;SDS011;67235;45.638;11.714;2023-10-31T09:34:22;932.40;;;469.23;;
78027;SDS011;67235;45.638;11.714;2023-10-31T09:37:33;914.33;;;470.37;;
78027;SDS011;67235;45.638;11.714;2023-10-31T09:40:11;918.92;;;476.00;;
78027;SDS011;67235;45.638;11.714;2023-10-31T09:42:53;914.70;;;478.23;;
78027;SDS011;67235;45.638;11.714;2023-10-31T09:45:42;906.85;;;479.75;;
78027;SDS011;67235;45.638;11.714;2023-10-31T09:48:10;907.80;;;481.33;;
78027;SDS011;67235;45.638;11.714;2023-10-31T15:17:39;876.45;;;476.85;;
78027;SDS011;67235;45.638;11.714;2023-10-31T15:20:22;875.65;;;477.65;;
78027;SDS011;67235;45.638;11.714;2023-10-31T15:22:50;877.50;;;478.75;;
78027;SDS011;67235;45.638;11.714;2023-10-31T15:25:20;881.97;;;481.65;;
78027;SDS011;67235;45.638;11.714;2023-10-31T15:27:50;885.83;;;485.52;;
78027;SDS011;67235;45.638;11.714;2023-10-31T15:30:18;884.00;;;481.30;;
78027;SDS011;67235;45.638;11.714;2023-10-31T15:32:48;883.90;;;482.08;;
78027;SDS011;67235;45.638;11.714;2023-10-31T15:45:18;877.15;;;480.83;;
78027;SDS011;67235;45.638;11.714;2023-10-31T15:50:43;872.53;;;483.73;;
78027;SDS011;67235;45.638;11.714;2023-10-31T15:53:12;870.20;;;481.95;;
78027;SDS011;67235;45.638;11.714;2023-10-31T15:55:38;864.10;;;474.73;;
78027;SDS011;67235;45.638;11.714;2023-10-31T15:58:04;869.70;;;480.92;;
78027;SDS011;67235;45.638;11.714;2023-10-31T16:00:34;864.83;;;481.45;;
78027;SDS011;67235;45.638;11.714;2023-10-31T16:03:02;860.70;;;478.27;;
78027;SDS011;67235;45.638;11.714;2023-10-31T16:05:31;863.20;;;481.05;;
78027;SDS011;67235;45.638;11.714;2023-10-31T16:07:58;860.97;;;479.95;;
78027;SDS011;67235;45.638;11.714;2023-10-31T16:10:24;862.28;;;483.80;;
78027;SDS011;67235;45.638;11.714;2023-10-31T16:12:50;855.90;;;480.48;;
78027;SDS011;67235;45.638;11.714;2023-10-31T16:15:18;851.78;;;479.48;;
78027;SDS011;67235;45.638;11.714;2023-10-31T16:17:44;850.35;;;476.98;;
78027;SDS011;67235;45.638;11.714;2023-10-31T16:20:11;845.00;;;478.77;;
78027;SDS011;67235;45.638;11.714;2023-10-31T16:22:37;842.53;;;478.10;;
78027;SDS011;67235;45.638;11.714;2023-10-31T16:25:03;836.75;;;477.50;;
78027;SDS011;67235;45.638;11.714;2023-10-31T16:27:29;833.85;;;475.05;;
78027;SDS011;67235;45.638;11.714;2023-10-31T16:29:55;828.85;;;475.98;;
78027;SDS011;67235;45.638;11.714;2023-10-31T16:32:21;824.30;;;476.13;;
78027;SDS011;67235;45.638;11.714;2023-10-31T16:34:47;824.97;;;478.20;;
78027;SDS011;67235;45.638;11.714;2023-10-31T16:37:15;818.92;;;476.45;;
78027;SDS011;67235;45.638;11.714;2023-10-31T16:39:42;816.53;;;475.93;;
78027;SDS011;67235;45.638;11.714;2023-10-31T16:42:08;807.17;;;472.40;;
78027;SDS011;67235;45.638;11.714;2023-10-31T16:44:34;807.38;;;471.58;;
78027;SDS011;67235;45.638;11.714;2023-10-31T16:47:00;809.08;;;475.65;;
78027;SDS011;67235;45.638;11.714;2023-10-31T16:49:27;803.97;;;474.97;;
78027;SDS011;67235;45.638;11.714;2023-10-31T16:51:56;799.03;;;473.42;;
78027;SDS011;67235;45.638;11.714;2023-10-31T16:54:24;800.63;;;475.05;;
78027;SDS011;67235;45.638;11.714;2023-10-31T16:56:51;796.92;;;475.02;;
78027;SDS011;67235;45.638;11.714;2023-10-31T16:59:19;793.85;;;474.75;;
78027;SDS011;67235;45.638;11.714;2023-10-31T17:01:46;793.70;;;474.57;;
78027;SDS011;67235;45.638;11.714;2023-10-31T17:04:17;791.95;;;473.52;;
78027;SDS011;67235;45.638;11.714;2023-10-31T17:06:43;794.33;;;474.05;;
78027;SDS011;67235;45.638;11.714;2023-10-31T17:09:09;793.03;;;475.55;;
78027;SDS011;67235;45.638;11.714;2023-10-31T17:11:35;794.35;;;475.30;;
78027;SDS011;67235;45.638;11.714;2023-10-31T17:14:01;794.15;;;475.73;;
78027;SDS011;67235;45.638;11.714;2023-10-31T17:16:28;795.53;;;476.13;;
78027;SDS011;67235;45.638;11.714;2023-10-31T17:18:53;792.20;;;478.93;;
78027;SDS011;67235;45.638;11.714;2023-10-31T17:21:19;788.95;;;472.90;;
78027;SDS011;67235;45.638;11.714;2023-10-31T17:23:45;784.67;;;474.30;;
78027;SDS011;67235;45.638;11.714;2023-10-31T17:26:11;786.13;;;477.17;;
78027;SDS011;67235;45.638;11.714;2023-10-31T17:28:37;788.28;;;475.27;;
78027;SDS011;67235;45.638;11.714;2023-10-31T17:31:06;788.33;;;478.67;;
78027;SDS011;67235;45.638;11.714;2023-10-31T17:33:32;783.90;;;477.57;;
78027;SDS011;67235;45.638;11.714;2023-10-31T17:35:59;782.03;;;476.25;;
78027;SDS011;67235;45.638;11.714;2023-10-31T17:38:25;783.35;;;476.60;;
78027;SDS011;67235;45.638;11.714;2023-10-31T17:40:52;780.33;;;477.60;;
78027;SDS011;67235;45.638;11.714;2023-10-31T17:43:19;776.20;;;475.13;;
78027;SDS011;67235;45.638;11.714;2023-10-31T17:45:45;775.13;;;475.87;;
78027;SDS011;67235;45.638;11.714;2023-10-31T17:48:13;772.70;;;475.60;;
78027;SDS011;67235;45.638;11.714;2023-10-31T17:50:39;771.88;;;475.35;;
78027;SDS011;67235;45.638;11.714;2023-10-31T17:53:05;768.17;;;473.10;;
78027;SDS011;67235;45.638;11.714;2023-10-31T17:55:31;768.03;;;477.33;;
78027;SDS011;67235;45.638;11.714;2023-10-31T17:57:57;763.88;;;472.67;;
78027;SDS011;67235;45.638;11.714;2023-10-31T18:00:23;764.97;;;472.02;;
78027;SDS011;67235;45.638;11.714;2023-10-31T18:02:49;769.97;;;478.13;;
78027;SDS011;67235;45.638;11.714;2023-10-31T18:05:15;768.42;;;478.15;;
78027;SDS011;67235;45.638;11.714;2023-10-31T18:07:41;769.38;;;480.05;;
78027;SDS011;67235;45.638;11.714;2023-10-31T18:10:08;765.38;;;475.65;;
78027;SDS011;67235;45.638;11.714;2023-10-31T18:12:35;768.83;;;479.53;;
78027;SDS011;67235;45.638;11.714;2023-10-31T18:15:01;762.25;;;476.88;;
78027;SDS011;67235;45.638;11.714;2023-10-31T18:17:28;762.65;;;473.88;;
78027;SDS011;67235;45.638;11.714;2023-10-31T18:19:54;762.60;;;475.05;;
78027;SDS011;67235;45.638;11.714;2023-10-31T18:22:21;761.27;;;473.93;;
78027;SDS011;67235;45.638;11.714;2023-10-31T18:24:47;755.80;;;470.98;;
78027;SDS011;67235;45.638;11.714;2023-10-31T18:27:12;762.97;;;475.92;;
78027;SDS011;67235;45.638;11.714;2023-10-31T18:29:38;761.47;;;473.77;;
78027;SDS011;67235;45.638;11.714;2023-10-31T18:32:04;759.60;;;472.85;;
78027;SDS011;67235;45.638;11.714;2023-10-31T18:34:30;761.00;;;474.40;;
78027;SDS011;67235;45.638;11.714;2023-10-31T18:36:56;756.47;;;470.17;;
78027;SDS011;67235;45.638;11.714;2023-10-31T18:39:22;757.15;;;468.95;;
78027;SDS011;67235;45.638;11.714;2023-10-31T18:41:48;753.35;;;464.40;;
78027;SDS011;67235;45.638;11.714;2023-10-31T18:44:14;756.40;;;468.87;;
78027;SDS011;67235;45.638;11.714;2023-10-31T18:46:40;757.55;;;471.65;;
78027;SDS011;67235;45.638;11.714;2023-10-31T18:49:06;759.55;;;468.27;;
78027;SDS011;67235;45.638;11.714;2023-10-31T18:51:32;764.87;;;476.57;;
78027;SDS011;67235;45.638;11.714;2023-10-31T18:53:58;755.65;;;466.27;;
78027;SDS011;67235;45.638;11.714;2023-10-31T18:56:23;757.33;;;467.80;;
78027;SDS011;67235;45.638;11.714;2023-10-31T18:58:49;756.15;;;467.10;;
78027;SDS011;67235;45.638;11.714;2023-10-31T19:01:15;759.88;;;467.85;;
78027;SDS011;67235;45.638;11.714;2023-10-31T19:03:43;757.90;;;466.13;;
78027;SDS011;67235;45.638;11.714;2023-10-31T19:06:09;762.72;;;467.13;;
78027;SDS011;67235;45.638;11.714;2023-10-31T19:08:35;771.63;;;466.90;;
78027;SDS011;67235;45.638;11.714;2023-10-31T19:11:01;765.72;;;465.80;;
78027;SDS011;67235;45.638;11.714;2023-10-31T19:13:26;761.28;;;466.23;;
78027;SDS011;67235;45.638;11.714;2023-10-31T19:15:52;758.22;;;461.25;;
78027;SDS011;67235;45.638;11.714;2023-10-31T19:18:19;761.00;;;465.08;;
78027;SDS011;67235;45.638;11.714;2023-10-31T19:20:47;760.33;;;467.30;;
78027;SDS011;67235;45.638;11.714;2023-10-31T19:23:13;758.30;;;464.93;;
78027;SDS011;67235;45.638;11.714;2023-10-31T19:25:39;761.70;;;464.92;;
78027;SDS011;67235;45.638;11.714;2023-10-31T19:28:05;759.80;;;465.23;;
78027;SDS011;67235;45.638;11.714;2023-10-31T19:30:31;757.37;;;463.73;;
78027;SDS011;67235;45.638;11.714;2023-10-31T19:32:57;753.67;;;461.20;;
78027;SDS011;67235;45.638;11.714;2023-10-31T19:35:23;755.28;;;462.33;;
78027;SDS011;67235;45.638;11.714;2023-10-31T19:37:49;752.60;;;460.53;;